Time;durP1;ratioP1;P1;durP2;ratioP2;P2;SDS_P1;SDS_P2;PMS_P1;PMS_P2;Temp;Humidity;BMP_temperature;BMP_pressure;BME280_temperature;BME280_humidity;BME280_pressure;Samples;Min_cycle;Max_cycle;Signal;HPM_P1;HPM_P2
2022/11/16 00:00:47;;;;;;;7.03;4.90;;;12.10;99.90;;;;;;4988945;28;20190;-65
2022/11/16 00:03:13;;;;;;;4.33;3.93;;;12.10;99.90;;;;;;4991745;28;20199;-65
2022/11/16 00:05:38;;;;;;;6.03;4.10;;;12.10;99.90;;;;;;4986757;28;20180;-66
2022/11/16 00:08:04;;;;;;;5.20;4.70;;;12.10;99.90;;;;;;4990841;28;20648;-65
2022/11/16 00:10:29;;;;;;;5.80;4.17;;;12.20;99.90;;;;;;4990357;28;20269;-66
2022/11/16 00:12:55;;;;;;;4.13;3.50;;;12.40;99.90;;;;;;4987771;28;20265;-66
2022/11/16 00:15:21;;;;;;;4.40;4.00;;;12.30;99.90;;;;;;4990543;28;20709;-64
2022/11/16 00:17:46;;;;;;;4.63;4.10;;;12.40;99.90;;;;;;4990442;28;20588;-66
2022/11/16 00:20:12;;;;;;;3.80;3.40;;;12.40;99.90;;;;;;4987908;28;20192;-66
2022/11/16 00:22:37;;;;;;;4.60;4.20;;;12.30;99.90;;;;;;4990205;28;20211;-65
2022/11/16 00:25:03;;;;;;;4.50;4.10;;;12.40;99.90;;;;;;4991514;28;20199;-65
2022/11/16 00:27:29;;;;;;;6.97;4.38;;;12.40;99.90;;;;;;4994016;28;20191;-65
2022/11/16 00:29:55;;;;;;;4.23;3.93;;;12.20;99.90;;;;;;4984704;28;20223;-65
2022/11/16 00:32:20;;;;;;;4.10;3.77;;;12.20;99.90;;;;;;4994094;28;20214;-66
2022/11/16 00:34:46;;;;;;;5.70;4.23;;;12.10;99.90;;;;;;4994037;28;20195;-65
2022/11/16 00:37:11;;;;;;;4.73;4.33;;;12.30;99.90;;;;;;4991349;28;20188;-65
2022/11/16 00:39:37;;;;;;;4.50;4.10;;;12.20;99.90;;;;;;4994204;28;20219;-64
2022/11/16 00:42:02;;;;;;;4.60;4.20;;;12.30;99.90;;;;;;4994241;28;20244;-65
2022/11/16 00:44:28;;;;;;;4.53;4.13;;;12.50;99.90;;;;;;4990889;28;20240;-63
2022/11/16 00:46:54;;;;;;;4.43;4.03;;;12.00;99.90;;;;;;5004213;28;20187;-65
2022/11/16 00:49:19;;;;;;;4.10;3.70;;;12.40;99.90;;;;;;4994280;28;20632;-66
2022/11/16 00:51:45;;;;;;;4.90;4.50;;;12.30;99.90;;;;;;4986330;28;20222;-66
2022/11/16 00:54:10;;;;;;;4.90;4.40;;;12.20;99.90;;;;;;4994569;28;20215;-65
2022/11/16 00:56:36;;;;;;;4.87;4.33;;;12.30;99.90;;;;;;4993523;28;20238;-65
2022/11/16 00:59:02;;;;;;;5.10;4.60;;;12.50;99.90;;;;;;4992415;28;20192;-65
2022/11/16 01:01:28;;;;;;;4.90;4.40;;;12.50;99.90;;;;;;4986295;28;20553;-65
2022/11/16 01:03:54;;;;;;;3.80;3.50;;;12.30;99.90;;;;;;4993737;28;20470;-66
2022/11/16 01:06:22;;;;;;;4.57;3.90;;;12.20;99.90;;;;;;4989843;28;20200;-66
2022/11/16 01:08:48;;;;;;;4.60;4.03;;;12.30;99.90;;;;;;4993569;28;20538;-64
2022/11/16 01:14:03;;;;;;;5.03;4.00;;;12.40;99.90;;;;;;4993417;28;20509;-64
2022/11/16 01:16:29;;;;;;;5.40;3.97;;;12.20;99.90;;;;;;4991877;28;20206;-65
2022/11/16 01:18:55;;;;;;;5.57;3.80;;;12.20;99.90;;;;;;4993650;28;20202;-66
2022/11/16 01:21:22;;;;;;;4.27;3.83;;;12.20;99.90;;;;;;4992016;28;20198;-66
2022/11/16 01:23:47;;;;;;;4.72;3.28;;;12.30;99.90;;;;;;4993618;28;20302;-66
2022/11/16 01:26:13;;;;;;;3.80;3.40;;;12.00;99.90;;;;;;4992769;28;20274;-64
2022/11/16 01:28:38;;;;;;;5.70;4.40;;;12.10;99.90;;;;;;4993505;28;20305;-64
2022/11/16 01:31:04;;;;;;;4.93;3.63;;;12.00;99.90;;;;;;4990534;28;20606;-64
2022/11/16 01:33:30;;;;;;;4.87;4.37;;;12.20;99.90;;;;;;4992846;28;20206;-65
2022/11/16 01:35:56;;;;;;;4.80;4.30;;;12.10;99.90;;;;;;4988384;28;20719;-64
2022/11/16 01:38:21;;;;;;;4.33;3.70;;;12.00;99.90;;;;;;4991527;28;20187;-64
2022/11/16 01:40:47;;;;;;;7.43;4.27;;;11.90;99.90;;;;;;4991958;28;20175;-63
2022/11/16 01:43:22;;;;;;;5.13;4.10;;;11.90;99.90;;;;;;4991628;28;20214;-64
2022/11/16 01:45:48;;;;;;;3.97;3.67;;;12.00;99.90;;;;;;4991927;28;20191;-65
2022/11/16 01:48:23;;;;;;;3.47;3.17;;;11.90;99.90;;;;;;4991533;28;20199;-65
2022/11/16 01:50:50;;;;;;;3.80;3.10;;;12.10;99.90;;;;;;4991118;28;20182;-66
2022/11/16 01:53:16;;;;;;;4.07;3.67;;;12.00;99.90;;;;;;4992914;28;20214;-66
2022/11/16 01:55:43;;;;;;;4.70;4.17;;;11.80;99.90;;;;;;4993695;28;20190;-66
2022/11/16 01:58:28;;;;;;;6.10;4.22;;;11.90;99.90;;;;;;4992731;28;20446;-64
2022/11/16 02:00:54;;;;;;;5.10;3.80;;;12.00;99.90;;;;;;4987317;28;20629;-66
2022/11/16 02:03:20;;;;;;;4.90;4.37;;;11.70;99.90;;;;;;4993307;28;20222;-66
2022/11/16 02:06:18;;;;;;;3.88;3.58;;;11.80;99.90;;;;;;4987626;28;20195;-65
2022/11/16 02:12:12;;;;;;;4.20;3.80;;;11.90;99.90;;;;;;4992240;28;20691;-64
2022/11/16 02:14:38;;;;;;;4.15;3.75;;;11.80;99.90;;;;;;4991735;28;20278;-65
2022/11/16 02:17:18;;;;;;;5.13;4.63;;;11.80;99.90;;;;;;4992349;28;20729;-64
2022/11/16 02:20:13;;;;;;;4.03;3.63;;;11.80;99.90;;;;;;4992608;28;20544;-65
2022/11/16 02:23:15;;;;;;;5.10;4.30;;;11.90;99.90;;;;;;4983604;28;20572;-65
2022/11/16 02:25:52;;;;;;;5.13;4.63;;;12.10;99.90;;;;;;4983598;28;20722;-66
2022/11/16 02:28:41;;;;;;;6.45;3.92;;;11.50;99.90;;;;;;4990800;28;20575;-66
2022/11/16 02:31:12;;;;;;;4.93;4.25;;;11.70;99.90;;;;;;4988375;28;20250;-64
2022/11/16 02:33:40;;;;;;;4.85;4.05;;;12.00;99.90;;;;;;4990718;28;20206;-65
2022/11/16 02:36:10;;;;;;;4.43;4.03;;;11.70;99.90;;;;;;4986477;28;20273;-65
2022/11/16 02:38:40;;;;;;;4.43;4.03;;;11.60;99.90;;;;;;4983296;28;20179;-65
2022/11/16 02:41:16;;;;;;;4.63;4.20;;;11.50;99.90;;;;;;4993735;28;20656;-65
2022/11/16 02:43:46;;;;;;;4.80;4.40;;;11.50;99.90;;;;;;4975013;28;20476;-65
2022/11/16 02:46:17;;;;;;;8.82;4.32;;;11.80;99.90;;;;;;4991710;28;20692;-65
2022/11/16 02:48:47;;;;;;;5.00;4.47;;;11.70;99.90;;;;;;4991389;28;20825;-65
2022/11/16 02:51:14;;;;;;;4.35;3.95;;;11.80;99.90;;;;;;4987344;28;20195;-66
2022/11/16 02:53:57;;;;;;;4.70;4.28;;;11.50;99.90;;;;;;4992093;28;20241;-64
2022/11/16 02:56:22;;;;;;;9.02;4.47;;;11.70;99.90;;;;;;4982865;28;20218;-65
2022/11/16 02:58:48;;;;;;;8.20;4.00;;;11.70;99.90;;;;;;4991182;28;20230;-66
2022/11/16 03:01:46;;;;;;;4.00;3.63;;;11.90;99.90;;;;;;4987594;28;20194;-65
2022/11/16 03:04:31;;;;;;;5.28;4.78;;;11.90;99.90;;;;;;4990794;28;20309;-65
2022/11/16 03:07:00;;;;;;;5.47;4.50;;;11.70;99.90;;;;;;4988017;28;20273;-64
2022/11/16 03:09:29;;;;;;;4.65;4.25;;;11.60;99.90;;;;;;4991060;28;20221;-66
2022/11/16 03:12:00;;;;;;;4.95;4.30;;;11.70;99.90;;;;;;4991525;28;20244;-66
2022/11/16 03:14:28;;;;;;;6.45;4.53;;;11.60;99.90;;;;;;4990765;28;20260;-65
2022/11/16 03:16:59;;;;;;;5.35;4.75;;;11.80;99.90;;;;;;4991215;28;20270;-65
2022/11/16 03:19:32;;;;;;;4.35;3.47;;;11.60;99.90;;;;;;4990984;28;20357;-65
2022/11/16 03:22:16;;;;;;;4.40;3.88;;;11.90;99.90;;;;;;4985332;28;20203;-65
2022/11/16 03:24:42;;;;;;;4.00;3.60;;;12.00;99.90;;;;;;4989717;28;20281;-65
2022/11/16 03:27:19;;;;;;;4.80;3.83;;;11.70;99.90;;;;;;4991724;28;20282;-65
2022/11/16 03:29:51;;;;;;;4.63;4.22;;;11.70;99.90;;;;;;4988754;28;20475;-65
2022/11/16 03:32:27;;;;;;;4.93;4.20;;;11.70;99.90;;;;;;4990865;28;20211;-65
2022/11/16 03:35:07;;;;;;;4.00;3.50;;;11.70;99.90;;;;;;4988869;28;20285;-65
2022/11/16 03:37:35;;;;;;;4.88;4.47;;;11.80;99.90;;;;;;4986873;28;20182;-65
2022/11/16 03:40:03;;;;;;;3.92;3.50;;;11.80;99.90;;;;;;4988009;28;20187;-65
2022/11/16 03:42:30;;;;;;;3.28;2.97;;;11.70;99.90;;;;;;4986060;28;20196;-64
2022/11/16 03:44:56;;;;;;;3.80;3.40;;;12.00;99.90;;;;;;4987692;28;20198;-64
2022/11/16 03:47:22;;;;;;;3.75;2.85;;;11.90;99.90;;;;;;5004350;28;20219;-64
2022/11/16 03:49:48;;;;;;;3.20;2.90;;;12.00;99.90;;;;;;4990443;28;20297;-65
2022/11/16 03:52:15;;;;;;;3.53;3.23;;;12.10;99.90;;;;;;4985709;28;20293;-64
2022/11/16 03:54:41;;;;;;;3.30;3.00;;;11.90;99.90;;;;;;4990542;28;20213;-64
2022/11/16 03:57:08;;;;;;;3.72;2.97;;;11.90;99.90;;;;;;4990093;28;20726;-64
2022/11/16 03:59:34;;;;;;;4.25;3.35;;;12.00;99.90;;;;;;4983954;28;20233;-65
2022/11/16 04:01:59;;;;;;;3.00;2.80;;;12.00;99.90;;;;;;4989234;28;20742;-66
2022/11/16 04:28:12;;;;;;;3.53;3.05;;;12.00;99.90;;;;;;4994748;28;20202;-66
2022/11/16 04:29:12;;;;;;;3.97;3.60;;;12.00;99.90;;;;;;4993358;28;20223;-65
2022/11/16 04:39:50;;;;;;;6.35;3.42;;;12.10;99.90;;;;;;4994929;28;20210;-65
2022/11/16 04:42:18;;;;;;;2.90;2.70;;;12.40;99.90;;;;;;4987020;28;20209;-65
2022/11/16 04:47:28;;;;;;;2.58;2.38;;;12.20;99.90;;;;;;4994249;28;20229;-65
2022/11/16 04:49:54;;;;;;;2.10;1.90;;;12.00;99.90;;;;;;4993042;28;20219;-65
2022/11/16 04:52:20;;;;;;;2.90;2.30;;;12.20;99.90;;;;;;4988711;28;20222;-66
2022/11/16 04:54:45;;;;;;;2.23;2.03;;;12.00;99.90;;;;;;4993852;28;20179;-65
2022/11/16 04:57:11;;;;;;;2.00;1.90;;;12.50;99.90;;;;;;4995122;28;20675;-66
2022/11/16 04:59:36;;;;;;;3.67;3.37;;;12.20;99.90;;;;;;4993473;28;20192;-66
2022/11/16 05:02:08;;;;;;;3.20;2.53;;;12.60;99.90;;;;;;4993731;28;20566;-66
2022/11/16 05:04:36;;;;;;;3.08;2.75;;;12.60;99.90;;;;;;4994001;28;20191;-66
2022/11/16 05:07:02;;;;;;;3.13;2.83;;;12.50;99.90;;;;;;4989489;28;20198;-65
2022/11/16 05:09:27;;;;;;;4.07;3.10;;;12.60;99.90;;;;;;4992832;28;20203;-66
2022/11/16 05:11:53;;;;;;;3.97;3.57;;;12.40;99.90;;;;;;4992805;28;20446;-66
2022/11/16 05:14:19;;;;;;;3.33;3.10;;;12.30;99.90;;;;;;4993031;28;20665;-66
2022/11/16 05:16:44;;;;;;;3.83;3.20;;;12.40;99.90;;;;;;4992840;28;20184;-66
2022/11/16 05:21:54;;;;;;;3.05;2.75;;;12.40;99.90;;;;;;4991915;28;20683;-65
2022/11/16 05:24:34;;;;;;;3.47;2.83;;;12.40;99.90;;;;;;5008115;28;20187;-66
2022/11/16 05:27:02;;;;;;;3.65;3.25;;;12.40;99.90;;;;;;4990415;28;20191;-65
2022/11/16 05:29:27;;;;;;;3.70;3.40;;;12.40;99.90;;;;;;4987787;28;20218;-63
2022/11/16 05:31:53;;;;;;;4.13;3.73;;;12.30;99.90;;;;;;4992364;28;20187;-66
2022/11/16 05:34:19;;;;;;;4.13;3.83;;;12.10;99.90;;;;;;5004916;28;20183;-65
2022/11/16 05:36:44;;;;;;;3.93;3.63;;;12.00;99.90;;;;;;4990040;28;20191;-64
2022/11/16 05:39:11;;;;;;;4.00;3.23;;;12.00;99.90;;;;;;4990666;28;20278;-65
2022/11/16 05:41:36;;;;;;;5.30;4.40;;;12.20;99.90;;;;;;4991649;28;20755;-65
2022/11/16 05:44:02;;;;;;;3.80;3.43;;;12.00;99.90;;;;;;4988169;28;20219;-65
2022/11/16 05:46:27;;;;;;;4.47;3.93;;;11.80;99.90;;;;;;4990399;28;20196;-65
2022/11/16 05:48:53;;;;;;;5.00;4.00;;;11.90;99.90;;;;;;4992660;28;20245;-65
2022/11/16 05:51:19;;;;;;;3.77;3.37;;;12.00;99.90;;;;;;4990523;28;20266;-65
2022/11/16 05:53:44;;;;;;;3.70;3.10;;;11.90;99.90;;;;;;4989069;28;20680;-66
2022/11/16 05:56:13;;;;;;;3.83;3.37;;;12.20;99.90;;;;;;4995278;28;20214;-65
2022/11/16 05:58:38;;;;;;;5.47;3.83;;;12.00;99.90;;;;;;5003683;28;20557;-65
2022/11/16 06:01:04;;;;;;;6.13;3.53;;;11.80;99.90;;;;;;4992834;28;20678;-65
2022/11/16 06:03:30;;;;;;;3.73;3.43;;;11.80;99.90;;;;;;4985228;28;20650;-66
2022/11/16 06:05:56;;;;;;;4.50;4.10;;;11.70;99.90;;;;;;4991307;28;20607;-66
2022/11/16 06:08:23;;;;;;;4.60;4.20;;;11.60;99.90;;;;;;4989743;28;20288;-66
2022/11/16 06:10:49;;;;;;;4.97;4.25;;;11.50;99.90;;;;;;4990868;28;20222;-65
2022/11/16 06:13:14;;;;;;;5.20;4.80;;;11.50;99.90;;;;;;4988364;28;20728;-64
2022/11/16 06:15:40;;;;;;;5.50;4.57;;;11.70;99.90;;;;;;4989756;28;20438;-64
2022/11/16 06:18:07;;;;;;;4.20;3.80;;;11.70;99.90;;;;;;4990495;28;20185;-67
2022/11/16 06:20:33;;;;;;;4.35;3.95;;;11.50;99.90;;;;;;4985840;28;20474;-69
2022/11/16 06:22:59;;;;;;;5.93;4.13;;;11.50;99.90;;;;;;4986609;28;20222;-67
2022/11/16 06:25:24;;;;;;;5.10;3.90;;;11.60;99.90;;;;;;4982640;28;20263;-67
2022/11/16 06:27:50;;;;;;;4.63;4.13;;;11.60;99.90;;;;;;4992065;28;20242;-67
2022/11/16 06:30:16;;;;;;;4.80;4.00;;;13.20;99.90;;;;;;4996432;28;20207;-68
2022/11/16 06:32:41;;;;;;;6.97;3.90;;;11.60;99.90;;;;;;4994349;28;20214;-69
2022/11/16 06:35:07;;;;;;;3.70;3.40;;;12.10;99.90;;;;;;4991559;28;20194;-65
2022/11/16 06:37:33;;;;;;;5.80;4.57;;;11.70;99.90;;;;;;4996979;28;20197;-67
2022/11/16 06:39:58;;;;;;;7.03;3.93;;;11.80;99.90;;;;;;4986182;28;20299;-65
2022/11/16 06:42:24;;;;;;;4.97;3.37;;;11.90;99.90;;;;;;4997646;28;20450;-63
2022/11/16 06:44:50;;;;;;;4.13;3.73;;;11.90;99.90;;;;;;4988165;28;20193;-65
2022/11/16 06:47:15;;;;;;;4.77;4.30;;;12.10;99.90;;;;;;4987599;28;20564;-65
2022/11/16 06:49:41;;;;;;;4.20;3.80;;;11.90;99.90;;;;;;4991138;28;20224;-66
2022/11/16 06:52:06;;;;;;;3.57;3.27;;;12.00;99.90;;;;;;4987815;28;20189;-66
2022/11/16 06:54:32;;;;;;;4.60;3.40;;;12.10;99.90;;;;;;5008015;28;20198;-63
2022/11/16 06:56:58;;;;;;;5.30;4.43;;;12.20;99.90;;;;;;4994726;28;20190;-64
2022/11/16 06:59:23;;;;;;;9.93;7.10;;;12.00;99.90;;;;;;4989025;28;20649;-63
2022/11/16 07:01:49;;;;;;;6.77;4.60;;;12.00;99.90;;;;;;4993056;28;20209;-64
2022/11/16 07:04:15;;;;;;;4.15;3.75;;;11.90;99.90;;;;;;4990441;28;20672;-64
2022/11/16 07:06:41;;;;;;;7.90;6.40;;;11.90;99.90;;;;;;4989146;28;20192;-64
2022/11/16 07:09:08;;;;;;;4.00;3.57;;;12.00;99.90;;;;;;4994998;28;20468;-63
2022/11/16 07:11:35;;;;;;;3.80;3.50;;;12.00;99.90;;;;;;4998630;28;20665;-64
2022/11/16 07:14:02;;;;;;;4.30;3.90;;;12.00;99.90;;;;;;4980743;28;20210;-67
2022/11/16 07:16:28;;;;;;;4.68;4.28;;;12.10;99.90;;;;;;4987211;28;20267;-67
2022/11/16 07:18:58;;;;;;;4.68;4.28;;;12.10;99.90;;;;;;4989183;28;20224;-65
2022/11/16 07:21:24;;;;;;;5.18;4.50;;;12.20;99.90;;;;;;4987811;28;20203;-65
2022/11/16 07:23:49;;;;;;;4.93;4.53;;;12.00;99.90;;;;;;4987440;28;20229;-69
2022/11/16 07:26:16;;;;;;;4.30;3.90;;;12.10;99.90;;;;;;4993248;28;20194;-68
2022/11/16 07:28:41;;;;;;;4.78;3.78;;;12.10;99.90;;;;;;4990624;28;20241;-69
2022/11/16 07:31:09;;;;;;;3.97;3.57;;;11.90;99.90;;;;;;4986867;28;20189;-70
2022/11/16 07:33:36;;;;;;;4.50;3.65;;;12.00;99.90;;;;;;4989676;28;20218;-69
2022/11/16 07:36:11;;;;;;;4.65;3.92;;;11.90;99.90;;;;;;4989973;28;20190;-70
2022/11/16 07:38:37;;;;;;;3.28;3.00;;;12.50;99.90;;;;;;4989586;28;20211;-68
2022/11/16 07:41:05;;;;;;;2.78;2.58;;;12.20;99.90;;;;;;4991376;28;20533;-68
2022/11/16 07:43:35;;;;;;;4.10;3.22;;;12.40;99.90;;;;;;4995392;28;20203;-69
2022/11/16 07:46:11;;;;;;;3.50;2.80;;;12.40;99.90;;;;;;4989338;28;20233;-69
2022/11/16 07:48:36;;;;;;;3.78;2.97;;;12.90;99.90;;;;;;4993340;28;20179;-64
2022/11/16 07:51:07;;;;;;;3.53;3.23;;;12.70;99.90;;;;;;4996195;28;20179;-67
2022/11/16 07:53:34;;;;;;;4.38;4.00;;;12.90;99.90;;;;;;4988356;28;20676;-65
2022/11/16 07:55:59;;;;;;;3.08;2.70;;;12.90;99.90;;;;;;4995700;28;20193;-68
2022/11/16 07:58:27;;;;;;;2.47;2.30;;;13.00;99.90;;;;;;4988145;28;20187;-66
2022/11/16 08:00:53;;;;;;;2.05;1.95;;;13.00;99.90;;;;;;4989838;28;20195;-66
2022/11/16 08:03:18;;;;;;;3.80;2.67;;;12.70;99.90;;;;;;4984437;28;20973;-64
2022/11/16 08:05:44;;;;;;;5.13;2.20;;;12.90;99.90;;;;;;4984586;28;20481;-64
2022/11/16 08:08:10;;;;;;;2.80;1.23;;;13.00;99.90;;;;;;4989603;28;20453;-64
2022/11/16 08:10:36;;;;;;;2.60;1.20;;;12.80;99.90;;;;;;4987635;28;20210;-64
2022/11/16 08:13:02;;;;;;;1.40;1.20;;;13.00;99.90;;;;;;4989692;28;20722;-63
2022/11/16 08:15:28;;;;;;;1.55;1.45;;;13.00;99.90;;;;;;4988925;28;20187;-63
2022/11/16 08:17:53;;;;;;;3.83;1.60;;;13.10;99.90;;;;;;4996440;28;20257;-66
2022/11/16 08:20:19;;;;;;;1.53;1.40;;;12.90;99.90;;;;;;4984686;28;20261;-65
2022/11/16 08:22:44;;;;;;;2.50;1.60;;;13.30;99.90;;;;;;4987976;28;20215;-67
2022/11/16 08:25:11;;;;;;;2.00;1.17;;;13.30;99.90;;;;;;4984781;28;20195;-67
2022/11/16 08:27:36;;;;;;;6.20;4.43;;;13.60;99.90;;;;;;4984406;28;20633;-67
2022/11/16 08:30:08;;;;;;;1.73;1.60;;;13.80;99.90;;;;;;4987774;28;20199;-66
2022/11/16 08:32:34;;;;;;;3.15;1.30;;;13.40;99.90;;;;;;4991195;28;20196;-64
2022/11/16 08:35:01;;;;;;;1.88;1.00;;;13.30;99.90;;;;;;4984410;28;20267;-65
2022/11/16 08:37:27;;;;;;;2.03;1.20;;;13.30;99.90;;;;;;4987898;28;20184;-65
2022/11/16 08:39:55;;;;;;;1.57;1.00;;;13.50;99.90;;;;;;4991009;28;20654;-63
2022/11/16 08:42:21;;;;;;;1.30;1.13;;;13.80;99.90;;;;;;4992777;28;20696;-63
2022/11/16 08:44:47;;;;;;;2.70;1.17;;;13.60;99.90;;;;;;4983250;28;20215;-61
2022/11/16 08:47:12;;;;;;;1.30;1.00;;;14.00;99.90;;;;;;5005484;28;20194;-65
2022/11/16 08:49:38;;;;;;;1.60;1.20;;;13.60;99.90;;;;;;4990175;28;20630;-66
2022/11/16 08:52:04;;;;;;;6.90;1.23;;;13.60;99.90;;;;;;4980950;28;20199;-68
2022/11/16 08:54:30;;;;;;;1.80;1.50;;;13.60;99.90;;;;;;4987310;28;20278;-67
2022/11/16 08:56:56;;;;;;;2.30;1.60;;;13.80;99.90;;;;;;4989209;28;20298;-62
2022/11/16 08:59:21;;;;;;;2.03;1.43;;;13.50;99.90;;;;;;4992435;28;20529;-67
2022/11/16 09:01:48;;;;;;;1.47;1.13;;;13.50;99.90;;;;;;4992115;28;20187;-66
2022/11/16 09:04:14;;;;;;;2.50;1.67;;;13.70;99.90;;;;;;5002196;28;20208;-65
2022/11/16 09:06:40;;;;;;;1.13;1.03;;;13.70;99.90;;;;;;4991010;28;20270;-65
2022/11/16 09:09:06;;;;;;;4.10;2.30;;;14.00;99.90;;;;;;4993018;28;20557;-67
2022/11/16 09:11:32;;;;;;;1.97;1.43;;;14.10;99.90;;;;;;4992716;28;20439;-65
2022/11/16 09:13:58;;;;;;;1.80;1.10;;;13.80;99.90;;;;;;4985339;28;20212;-65
2022/11/16 09:16:25;;;;;;;3.28;1.10;;;14.10;99.90;;;;;;4988259;28;20828;-65
2022/11/16 09:18:51;;;;;;;1.10;1.00;;;14.10;99.90;;;;;;4990030;28;20184;-65
2022/11/16 09:21:27;;;;;;;1.03;0.93;;;14.10;99.90;;;;;;4988784;28;20206;-65
2022/11/16 09:23:54;;;;;;;3.10;1.27;;;14.70;99.90;;;;;;5006727;28;20510;-63
2022/11/16 09:26:21;;;;;;;2.58;1.40;;;14.80;99.90;;;;;;4984389;28;20194;-64
2022/11/16 09:28:54;;;;;;;2.90;1.50;;;14.80;99.90;;;;;;4990301;28;20187;-65
2022/11/16 09:31:21;;;;;;;1.60;1.20;;;15.00;99.90;;;;;;4991900;28;20337;-65
2022/11/16 09:33:47;;;;;;;1.35;1.25;;;15.10;99.90;;;;;;4990982;28;20214;-65
2022/11/16 09:36:14;;;;;;;3.10;1.47;;;14.90;99.90;;;;;;4988795;28;20183;-67
2022/11/16 09:38:43;;;;;;;1.52;1.23;;;15.00;99.90;;;;;;4991060;28;20435;-66
2022/11/16 09:41:21;;;;;;;2.45;1.27;;;15.70;99.90;;;;;;4996107;28;20223;-64
2022/11/16 09:44:08;;;;;;;2.65;1.38;;;15.70;99.90;;;;;;4991103;28;20206;-66
2022/11/16 09:46:47;;;;;;;3.08;1.33;;;15.30;99.90;;;;;;4986000;28;20269;-65
2022/11/16 09:49:17;;;;;;;2.67;1.15;;;15.30;99.90;;;;;;4990948;28;20660;-65
2022/11/16 09:51:47;;;;;;;1.20;1.10;;;15.10;99.90;;;;;;4996391;28;20192;-65
2022/11/16 09:54:23;;;;;;;1.30;1.20;;;15.30;99.90;;;;;;4989423;28;20665;-66
2022/11/16 09:56:53;;;;;;;1.90;1.25;;;15.30;99.90;;;;;;4991745;28;20191;-66
2022/11/16 09:59:21;;;;;;;1.67;1.15;;;14.80;99.90;;;;;;4987913;28;20188;-64
2022/11/16 10:01:50;;;;;;;1.90;1.05;;;15.20;99.90;;;;;;4993097;28;20188;-66
2022/11/16 10:04:46;;;;;;;1.20;1.10;;;15.20;99.90;;;;;;4990747;28;20226;-65
2022/11/16 10:07:42;;;;;;;1.60;1.50;;;15.00;99.90;;;;;;4974674;28;20192;-65
2022/11/16 10:10:14;;;;;;;1.80;1.17;;;14.90;99.90;;;;;;4981615;28;20651;-66
2022/11/16 10:12:57;;;;;;;3.10;1.65;;;15.60;99.90;;;;;;4995416;28;20233;-66
2022/11/16 10:15:28;;;;;;;2.17;1.20;;;16.20;99.90;;;;;;4985666;28;20183;-66
2022/11/16 10:18:19;;;;;;;1.20;1.10;;;16.30;99.90;;;;;;4990539;28;20219;-66
2022/11/16 10:20:47;;;;;;;2.15;1.20;;;16.10;99.90;;;;;;4984573;28;20526;-65
2022/11/16 10:23:18;;;;;;;1.17;0.95;;;16.00;99.90;;;;;;5003336;28;20653;-69
2022/11/16 10:25:48;;;;;;;2.22;1.00;;;16.10;99.90;;;;;;4989309;28;20239;-68
2022/11/16 10:28:16;;;;;;;1.35;1.00;;;15.90;99.90;;;;;;4986341;28;20184;-66
2022/11/16 10:31:01;;;;;;;1.45;0.90;;;15.80;99.90;;;;;;4991224;28;20226;-70
2022/11/16 10:33:34;;;;;;;1.52;1.00;;;15.60;99.90;;;;;;4992972;28;20221;-66
2022/11/16 10:36:03;;;;;;;1.73;0.88;;;16.60;99.90;;;;;;4990093;28;20187;-67
2022/11/16 10:38:29;;;;;;;1.33;1.23;;;16.80;99.90;;;;;;4991042;28;20179;-67
2022/11/16 10:41:01;;;;;;;1.60;1.08;;;17.40;99.80;;;;;;4991139;28;20245;-67
2022/11/16 10:43:30;;;;;;;1.55;0.90;;;17.60;99.90;;;;;;4993888;28;20290;-66
2022/11/16 10:46:05;;;;;;;2.20;2.00;;;18.40;98.70;;;;;;4990498;28;20226;-66
2022/11/16 10:48:49;;;;;;;1.30;1.20;;;18.70;97.40;;;;;;4991453;28;20194;-67
2022/11/16 10:51:15;;;;;;;1.13;0.90;;;18.80;97.00;;;;;;4981589;28;20492;-68
2022/11/16 10:53:45;;;;;;;1.60;1.30;;;18.60;97.10;;;;;;4990651;28;20218;-67
2022/11/16 10:56:30;;;;;;;1.20;1.10;;;18.50;97.20;;;;;;4992569;28;20187;-67
2022/11/16 10:59:00;;;;;;;1.15;1.02;;;18.80;96.50;;;;;;4994642;28;20280;-67
2022/11/16 11:01:36;;;;;;;1.60;0.90;;;18.90;95.40;;;;;;4991184;28;20209;-68
2022/11/16 11:04:28;;;;;;;1.10;0.73;;;19.10;94.60;;;;;;4986641;28;20207;-66
2022/11/16 11:07:20;;;;;;;2.05;1.08;;;18.80;94.50;;;;;;4986871;28;20277;-68
2022/11/16 11:09:52;;;;;;;1.20;0.90;;;17.80;95.50;;;;;;4988323;28;20206;-68
2022/11/16 11:12:38;;;;;;;2.08;0.90;;;17.60;96.70;;;;;;4988498;28;20227;-67
2022/11/16 11:15:10;;;;;;;1.10;1.00;;;17.70;96.40;;;;;;4986041;28;20257;-67
2022/11/16 11:17:37;;;;;;;3.08;1.00;;;18.30;95.90;;;;;;4989315;28;20739;-68
2022/11/16 11:20:15;;;;;;;2.25;1.90;;;18.00;95.40;;;;;;4986555;28;20199;-68
2022/11/16 11:22:52;;;;;;;1.67;1.00;;;17.50;96.00;;;;;;4989381;28;20266;-68
2022/11/16 11:25:40;;;;;;;1.20;0.95;;;17.70;96.10;;;;;;4986805;28;20225;-68
2022/11/16 11:28:45;;;;;;;3.17;1.20;;;17.20;96.80;;;;;;4990389;28;20659;-68
2022/11/16 11:31:24;;;;;;;2.70;1.40;;;16.90;98.10;;;;;;4993018;28;20206;-68
2022/11/16 11:34:03;;;;;;;3.60;1.50;;;16.60;98.80;;;;;;4987244;28;20215;-65
2022/11/16 11:36:39;;;;;;;2.05;1.15;;;16.40;99.80;;;;;;4993071;28;20214;-67
2022/11/16 11:39:06;;;;;;;1.60;1.25;;;16.30;99.60;;;;;;4996939;28;20265;-67
2022/11/16 11:41:42;;;;;;;1.70;1.08;;;15.90;98.40;;;;;;4991320;28;20217;-67
2022/11/16 11:44:19;;;;;;;3.63;1.30;;;16.00;98.60;;;;;;4983548;28;20207;-67
2022/11/16 11:47:06;;;;;;;1.85;1.35;;;15.80;99.00;;;;;;4983413;28;20709;-67
2022/11/16 11:49:39;;;;;;;1.30;1.20;;;15.60;99.70;;;;;;4985963;28;20253;-67
2022/11/16 11:52:17;;;;;;;2.20;1.92;;;15.40;99.90;;;;;;4990805;28;20349;-68
2022/11/16 11:54:48;;;;;;;3.65;2.20;;;15.30;99.90;;;;;;4980841;28;20685;-67
2022/11/16 11:57:21;;;;;;;1.67;1.10;;;15.40;99.90;;;;;;4986375;28;20191;-68
2022/11/16 11:59:49;;;;;;;1.95;1.27;;;15.40;99.90;;;;;;4985814;28;20702;-66
2022/11/16 12:02:40;;;;;;;3.05;1.30;;;15.50;99.90;;;;;;4986193;28;20249;-66
2022/11/16 12:05:51;;;;;;;3.35;2.30;;;15.80;99.90;;;;;;4987523;28;20279;-66
2022/11/16 12:08:34;;;;;;;2.80;1.73;;;16.00;99.90;;;;;;4985538;28;20187;-67
2022/11/16 12:11:30;;;;;;;1.20;1.10;;;15.80;99.80;;;;;;4988973;28;20219;-66
2022/11/16 12:14:24;;;;;;;1.15;1.00;;;15.90;98.10;;;;;;4992237;28;20956;-66
2022/11/16 12:16:57;;;;;;;2.28;1.35;;;15.90;98.70;;;;;;4984334;28;20358;-66
2022/11/16 12:19:32;;;;;;;1.02;0.93;;;15.80;98.10;;;;;;4988703;28;20274;-65
2022/11/16 12:22:09;;;;;;;1.63;0.90;;;16.40;96.80;;;;;;4984110;28;20183;-66
2022/11/16 12:24:52;;;;;;;1.00;0.88;;;16.40;96.40;;;;;;4993184;28;20183;-67
2022/11/16 12:27:41;;;;;;;1.25;0.80;;;16.50;95.60;;;;;;4996540;28;20190;-64
2022/11/16 12:30:17;;;;;;;3.72;0.90;;;16.40;94.50;;;;;;4990943;28;20211;-69
2022/11/16 12:33:01;;;;;;;1.30;1.00;;;16.60;93.80;;;;;;4989566;28;20231;-64
2022/11/16 12:35:45;;;;;;;0.80;0.70;;;16.70;93.50;;;;;;4989408;28;20189;-66
2022/11/16 12:38:24;;;;;;;2.10;0.70;;;16.90;93.20;;;;;;4991299;28;20183;-65
2022/11/16 12:41:24;;;;;;;3.05;0.80;;;16.60;92.70;;;;;;4994611;28;20202;-63
2022/11/16 12:44:05;;;;;;;1.55;1.45;;;16.70;92.70;;;;;;4992050;28;20855;-65
2022/11/16 12:47:12;;;;;;;2.70;1.10;;;16.80;92.80;;;;;;4986392;28;20279;-68
2022/11/16 12:50:04;;;;;;;4.63;1.10;;;16.80;92.70;;;;;;5000724;28;20195;-65
2022/11/16 12:52:54;;;;;;;1.20;0.88;;;16.70;93.00;;;;;;4989663;28;20287;-71
2022/11/16 12:55:49;;;;;;;2.00;0.85;;;17.00;92.50;;;;;;5004195;28;20198;-68
2022/11/16 12:58:21;;;;;;;2.38;1.10;;;16.90;92.00;;;;;;4981484;28;20622;-67
2022/11/16 13:01:21;;;;;;;1.38;0.80;;;17.00;91.60;;;;;;5004692;28;20555;-63
2022/11/16 13:03:52;;;;;;;0.90;0.75;;;16.90;91.50;;;;;;4989461;28;20586;-67
2022/11/16 13:06:29;;;;;;;4.03;1.02;;;16.50;91.40;;;;;;4980430;28;20185;-67
2022/11/16 13:09:14;;;;;;;2.30;0.95;;;16.60;91.80;;;;;;4989601;28;20287;-68
2022/11/16 13:11:46;;;;;;;3.47;1.10;;;16.50;91.40;;;;;;4996909;28;20186;-69
2022/11/16 13:14:27;;;;;;;1.13;0.93;;;16.50;91.70;;;;;;4990684;28;20199;-64
2022/11/16 13:16:53;;;;;;;2.13;0.80;;;16.50;91.70;;;;;;4991596;28;20195;-64
2022/11/16 13:19:19;;;;;;;1.00;0.70;;;16.50;91.50;;;;;;4992886;28;20188;-64
2022/11/16 13:22:08;;;;;;;1.00;0.70;;;16.20;91.50;;;;;;4989804;28;20207;-64
2022/11/16 13:24:51;;;;;;;1.85;0.60;;;16.20;91.40;;;;;;4993128;28;20202;-64
2022/11/16 13:28:08;;;;;;;2.22;1.60;;;16.10;91.40;;;;;;4990271;28;20532;-69
2022/11/16 13:30:56;;;;;;;3.05;1.30;;;16.00;92.00;;;;;;4982263;28;20336;-67
2022/11/16 13:33:36;;;;;;;3.75;0.90;;;15.60;93.00;;;;;;4990554;28;20630;-66
2022/11/16 13:36:30;;;;;;;2.20;0.90;;;15.70;92.30;;;;;;4998345;28;20183;-68
2022/11/16 13:38:55;;;;;;;1.50;0.90;;;15.60;92.00;;;;;;4991229;28;20269;-68
2022/11/16 13:41:39;;;;;;;1.33;0.70;;;15.70;92.10;;;;;;4991532;28;20703;-68
2022/11/16 13:44:20;;;;;;;1.00;0.80;;;15.50;92.20;;;;;;4991099;28;20215;-68
2022/11/16 13:47:03;;;;;;;1.40;1.00;;;15.60;92.70;;;;;;4989869;28;20183;-69
2022/11/16 13:49:30;;;;;;;2.40;1.02;;;15.30;93.60;;;;;;4992217;28;20208;-68
2022/11/16 13:52:02;;;;;;;4.25;1.73;;;15.20;93.50;;;;;;4990228;28;20191;-68